หน้าหลัก
METAR-TAF:

METAR-TAF

ท่าอากาศยาน :

คูราเซา, เนเธอร์แลนด์แอนทิลลิส

ละติจูด: 12-12N, ลองจิจูด: 068-58W, ความสูง: 9 ม.

การสังเกตสภาพอากาศปัจจุบัน

รายงานได้ทำขึ้นเมื่อ 45 นาทีที่แล้ว ณ เวลา 19:00 UTC
ลม 10 นอตจากตะวันออกโดยมีลมกระโชกได้ถึง20 นอต, แปรผันระหว่างเหนือ และตะวันออก/ตะวันออกเฉียงใต้
อุณหภูมิ 32°C
ความชื้น 63%
ความกดอากาศ 1009 hPa
ทัศนวิสัย 10 กม. หรือมากกว่า
มีเมฆน้อยที่ความสูง 2500 ฟุต
การโปรยปรายในบริเวณใกล้เคียง,

METAR: TNCC 151900Z 08010G20KT 360V110 9999 VCSH FEW025 32/24 Q1009 NOSIG

เวลา: 15:45 (19:45 UTC)

การพยากรณ์

รายงานได้ทำขึ้นเมื่อ 2 ชั่วโมงและ 30 นาทีที่แล้ว ณ เวลา 17:15 UTC
การพยากรณ์มีผลตั้งแต่วันที่ 15 ณ เวลา 18 UTC จนถึงวันที่ 16 ณ เวลา 18 UTC
ลม 15 นอตจากตะวันออก
ทัศนวิสัย 10 กม. หรือมากกว่า
มีเมฆกระจายเป็นบางส่วนที่ความสูง 2500 ฟุต
ความน่าจะเป็น 30% :
ชั่วคราว
ตั้งแต่วันที่ 16 ณ เวลา 08 UTC จนถึงวันที่ 16 ณ เวลา 14 UTC
มีเมฆเป็นส่วนมากเว้นเป็นระยะที่ความสูง 1500 ฟุต

TAF: TNCC 151715Z 1518/1618 09015KT 9999 SCT025 PROB30 TEMPO 1608/1614 BKN015

สังเกตการณ์สภาพอากาศและพยากรณ์อากาศของสนามบินมากกว่า 4000 แห่ง (รายงาน METAR และ TAF).

สถานีที่ดูได้จะแสดงไว้ด้วยจุดสีเหลืองและสีแดงบนแผนที่.

เลื่อนเมาส์ไปเหนือจุดเพื่อดูชื่อสถานี.

แล้วคลิกเพื่อดูสังเกตการณ์และการพยากรณ์สภาพอากาศ.

ในการเปลี่ยนแผนที่: คลิกที่ปุ่มสีเขียวที่มีกากบาทสีดำเพื่อซูมเข้า; ที่ปุ่มสีเขียวที่มีขีดเพื่อซูมออก; หรือที่ลูกศรสีเขียวเพื่อไปยังแผนที่ที่อยู่ติดกัน.


METAR-TAF: